sensor_id;sensor_type;location;lat;lon;timestamp;P1;durP1;ratioP1;P2;durP2;ratioP2
72335;SDS011;73817;48.446;8.834;2023-11-18T00:02:48;1.83;;;1.25;;
72335;SDS011;73817;48.446;8.834;2023-11-18T00:05:49;3.03;;;1.98;;
72335;SDS011;73817;48.446;8.834;2023-11-18T00:08:49;2.00;;;1.45;;
72335;SDS011;73817;48.446;8.834;2023-11-18T00:11:50;2.65;;;1.45;;
72335;SDS011;73817;48.446;8.834;2023-11-18T00:14:50;2.05;;;1.58;;
72335;SDS011;73817;48.446;8.834;2023-11-18T00:17:50;3.75;;;1.48;;
72335;SDS011;73817;48.446;8.834;2023-11-18T00:20:52;2.28;;;1.55;;
72335;SDS011;73817;48.446;8.834;2023-11-18T00:23:53;1.90;;;1.25;;
72335;SDS011;73817;48.446;8.834;2023-11-18T00:26:55;1.90;;;1.38;;
72335;SDS011;73817;48.446;8.834;2023-11-18T00:29:56;1.88;;;1.42;;
72335;SDS011;73817;48.446;8.834;2023-11-18T00:32:56;1.40;;;1.02;;
72335;SDS011;73817;48.446;8.834;2023-11-18T00:35:56;2.67;;;1.20;;
72335;SDS011;73817;48.446;8.834;2023-11-18T00:38:57;1.75;;;1.27;;
72335;SDS011;73817;48.446;8.834;2023-11-18T00:41:57;1.67;;;1.02;;
72335;SDS011;73817;48.446;8.834;2023-11-18T00:44:57;2.72;;;0.93;;
72335;SDS011;73817;48.446;8.834;2023-11-18T00:47:58;2.35;;;1.48;;
72335;SDS011;73817;48.446;8.834;2023-11-18T00:50:58;2.20;;;1.48;;
72335;SDS011;73817;48.446;8.834;2023-11-18T00:53:59;2.92;;;1.80;;
72335;SDS011;73817;48.446;8.834;2023-11-18T00:57:01;3.20;;;1.67;;
72335;SDS011;73817;48.446;8.834;2023-11-18T01:00:02;2.00;;;1.75;;
72335;SDS011;73817;48.446;8.834;2023-11-18T01:03:03;3.58;;;1.90;;
72335;SDS011;73817;48.446;8.834;2023-11-18T01:06:03;2.95;;;1.85;;
72335;SDS011;73817;48.446;8.834;2023-11-18T01:09:05;3.30;;;1.88;;
72335;SDS011;73817;48.446;8.834;2023-11-18T01:12:07;2.75;;;2.00;;
72335;SDS011;73817;48.446;8.834;2023-11-18T01:15:09;4.45;;;1.52;;
72335;SDS011;73817;48.446;8.834;2023-11-18T01:18:10;2.25;;;1.65;;
72335;SDS011;73817;48.446;8.834;2023-11-18T01:21:11;2.45;;;1.98;;
72335;SDS011;73817;48.446;8.834;2023-11-18T01:24:11;2.38;;;1.70;;
72335;SDS011;73817;48.446;8.834;2023-11-18T01:27:11;2.20;;;1.85;;
72335;SDS011;73817;48.446;8.834;2023-11-18T01:30:12;4.10;;;1.98;;
72335;SDS011;73817;48.446;8.834;2023-11-18T01:33:14;4.88;;;2.75;;
72335;SDS011;73817;48.446;8.834;2023-11-18T01:36:14;2.78;;;1.92;;
72335;SDS011;73817;48.446;8.834;2023-11-18T01:39:18;3.40;;;2.15;;
72335;SDS011;73817;48.446;8.834;2023-11-18T01:42:18;3.58;;;2.25;;
72335;SDS011;73817;48.446;8.834;2023-11-18T01:45:19;4.28;;;2.30;;
72335;SDS011;73817;48.446;8.834;2023-11-18T01:48:19;4.28;;;1.98;;
72335;SDS011;73817;48.446;8.834;2023-11-18T01:51:22;3.28;;;2.17;;
72335;SDS011;73817;48.446;8.834;2023-11-18T01:54:23;5.43;;;2.83;;
72335;SDS011;73817;48.446;8.834;2023-11-18T01:57:24;3.95;;;2.72;;
72335;SDS011;73817;48.446;8.834;2023-11-18T02:00:26;3.97;;;2.50;;
72335;SDS011;73817;48.446;8.834;2023-11-18T02:03:27;3.58;;;2.42;;
72335;SDS011;73817;48.446;8.834;2023-11-18T02:06:28;8.23;;;2.47;;
72335;SDS011;73817;48.446;8.834;2023-11-18T02:09:28;4.82;;;2.45;;
72335;SDS011;73817;48.446;8.834;2023-11-18T02:15:36;4.40;;;2.50;;
72335;SDS011;73817;48.446;8.834;2023-11-18T02:18:39;3.10;;;2.22;;
72335;SDS011;73817;48.446;8.834;2023-11-18T02:21:43;3.17;;;2.08;;
72335;SDS011;73817;48.446;8.834;2023-11-18T02:24:44;4.43;;;2.15;;
72335;SDS011;73817;48.446;8.834;2023-11-18T02:27:45;4.72;;;2.15;;
72335;SDS011;73817;48.446;8.834;2023-11-18T02:30:45;3.17;;;1.85;;
72335;SDS011;73817;48.446;8.834;2023-11-18T02:34:05;2.67;;;2.00;;
72335;SDS011;73817;48.446;8.834;2023-11-18T02:37:12;2.40;;;1.90;;
72335;SDS011;73817;48.446;8.834;2023-11-18T02:40:15;2.92;;;2.05;;
72335;SDS011;73817;48.446;8.834;2023-11-18T02:43:19;4.05;;;2.17;;
72335;SDS011;73817;48.446;8.834;2023-11-18T02:46:20;3.63;;;2.03;;
72335;SDS011;73817;48.446;8.834;2023-11-18T02:49:21;5.53;;;2.72;;
72335;SDS011;73817;48.446;8.834;2023-11-18T02:52:22;5.35;;;2.80;;
72335;SDS011;73817;48.446;8.834;2023-11-18T02:55:22;4.28;;;2.55;;
72335;SDS011;73817;48.446;8.834;2023-11-18T02:58:24;20.50;;;3.00;;
72335;SDS011;73817;48.446;8.834;2023-11-18T03:01:24;5.20;;;3.05;;
72335;SDS011;73817;48.446;8.834;2023-11-18T03:04:25;6.00;;;2.58;;
72335;SDS011;73817;48.446;8.834;2023-11-18T03:07:25;5.18;;;2.50;;
72335;SDS011;73817;48.446;8.834;2023-11-18T03:10:28;6.65;;;2.40;;
72335;SDS011;73817;48.446;8.834;2023-11-18T03:13:30;3.65;;;1.85;;
72335;SDS011;73817;48.446;8.834;2023-11-18T03:16:30;11.23;;;2.05;;
72335;SDS011;73817;48.446;8.834;2023-11-18T03:19:30;6.30;;;2.08;;
72335;SDS011;73817;48.446;8.834;2023-11-18T03:22:31;18.10;;;2.42;;
72335;SDS011;73817;48.446;8.834;2023-11-18T03:25:31;3.83;;;1.55;;
72335;SDS011;73817;48.446;8.834;2023-11-18T03:28:31;4.10;;;1.63;;
72335;SDS011;73817;48.446;8.834;2023-11-18T03:31:32;9.90;;;2.20;;
72335;SDS011;73817;48.446;8.834;2023-11-18T03:34:33;8.38;;;1.52;;
72335;SDS011;73817;48.446;8.834;2023-11-18T03:37:40;4.60;;;1.70;;
72335;SDS011;73817;48.446;8.834;2023-11-18T03:40:41;2.22;;;1.65;;
72335;SDS011;73817;48.446;8.834;2023-11-18T03:43:41;3.67;;;2.20;;
72335;SDS011;73817;48.446;8.834;2023-11-18T03:46:42;2.38;;;1.80;;
72335;SDS011;73817;48.446;8.834;2023-11-18T03:49:42;7.00;;;2.10;;
72335;SDS011;73817;48.446;8.834;2023-11-18T03:52:42;8.40;;;2.70;;
72335;SDS011;73817;48.446;8.834;2023-11-18T03:55:43;2.63;;;1.52;;
72335;SDS011;73817;48.446;8.834;2023-11-18T03:58:43;3.45;;;1.63;;
72335;SDS011;73817;48.446;8.834;2023-11-18T04:01:43;2.83;;;1.60;;
72335;SDS011;73817;48.446;8.834;2023-11-18T04:04:44;4.45;;;1.92;;
72335;SDS011;73817;48.446;8.834;2023-11-18T04:07:44;7.97;;;2.40;;
72335;SDS011;73817;48.446;8.834;2023-11-18T04:10:44;3.72;;;2.17;;
72335;SDS011;73817;48.446;8.834;2023-11-18T04:13:45;2.70;;;1.98;;
72335;SDS011;73817;48.446;8.834;2023-11-18T04:16:46;3.50;;;2.10;;
72335;SDS011;73817;48.446;8.834;2023-11-18T04:19:46;3.30;;;2.15;;
72335;SDS011;73817;48.446;8.834;2023-11-18T04:22:46;4.50;;;2.22;;
72335;SDS011;73817;48.446;8.834;2023-11-18T04:25:47;4.18;;;2.63;;
72335;SDS011;73817;48.446;8.834;2023-11-18T04:28:47;3.83;;;2.33;;
72335;SDS011;73817;48.446;8.834;2023-11-18T04:31:47;4.28;;;2.53;;
72335;SDS011;73817;48.446;8.834;2023-11-18T04:34:48;4.82;;;2.75;;
72335;SDS011;73817;48.446;8.834;2023-11-18T04:37:51;6.45;;;2.85;;
72335;SDS011;73817;48.446;8.834;2023-11-18T04:40:51;4.35;;;2.47;;
72335;SDS011;73817;48.446;8.834;2023-11-18T04:43:53;4.63;;;2.50;;
72335;SDS011;73817;48.446;8.834;2023-11-18T04:46:55;3.75;;;2.55;;
72335;SDS011;73817;48.446;8.834;2023-11-18T04:49:55;3.92;;;2.35;;
72335;SDS011;73817;48.446;8.834;2023-11-18T04:52:56;5.13;;;2.58;;
72335;SDS011;73817;48.446;8.834;2023-11-18T04:55:56;4.75;;;3.17;;
72335;SDS011;73817;48.446;8.834;2023-11-18T04:58:56;4.97;;;2.50;;
72335;SDS011;73817;48.446;8.834;2023-11-18T05:01:57;5.07;;;3.10;;
72335;SDS011;73817;48.446;8.834;2023-11-18T05:04:57;5.30;;;2.83;;
72335;SDS011;73817;48.446;8.834;2023-11-18T05:07:57;4.82;;;3.03;;
72335;SDS011;73817;48.446;8.834;2023-11-18T05:10:58;3.83;;;2.38;;
72335;SDS011;73817;48.446;8.834;2023-11-18T05:13:58;4.13;;;2.53;;
72335;SDS011;73817;48.446;8.834;2023-11-18T05:16:59;5.78;;;2.42;;
72335;SDS011;73817;48.446;8.834;2023-11-18T05:19:59;4.57;;;2.63;;
72335;SDS011;73817;48.446;8.834;2023-11-18T05:23:00;4.97;;;3.05;;
72335;SDS011;73817;48.446;8.834;2023-11-18T05:26:01;7.13;;;2.80;;
72335;SDS011;73817;48.446;8.834;2023-11-18T05:29:04;14.23;;;2.92;;
72335;SDS011;73817;48.446;8.834;2023-11-18T05:32:06;7.40;;;2.55;;
72335;SDS011;73817;48.446;8.834;2023-11-18T05:35:06;5.55;;;2.50;;
72335;SDS011;73817;48.446;8.834;2023-11-18T05:38:07;12.18;;;2.55;;
72335;SDS011;73817;48.446;8.834;2023-11-18T05:41:07;15.05;;;2.63;;
72335;SDS011;73817;48.446;8.834;2023-11-18T05:44:16;3.60;;;2.33;;
72335;SDS011;73817;48.446;8.834;2023-11-18T05:47:19;5.95;;;2.05;;
72335;SDS011;73817;48.446;8.834;2023-11-18T05:50:19;4.63;;;1.95;;
72335;SDS011;73817;48.446;8.834;2023-11-18T05:53:20;3.20;;;2.20;;
72335;SDS011;73817;48.446;8.834;2023-11-18T05:56:20;19.92;;;2.38;;
72335;SDS011;73817;48.446;8.834;2023-11-18T05:59:25;6.20;;;2.35;;
72335;SDS011;73817;48.446;8.834;2023-11-18T06:05:27;9.70;;;1.70;;
72335;SDS011;73817;48.446;8.834;2023-11-18T06:08:29;2.88;;;1.83;;
72335;SDS011;73817;48.446;8.834;2023-11-18T06:11:32;2.97;;;1.92;;
72335;SDS011;73817;48.446;8.834;2023-11-18T06:14:32;3.15;;;2.00;;
72335;SDS011;73817;48.446;8.834;2023-11-18T06:17:33;2.42;;;1.63;;
72335;SDS011;73817;48.446;8.834;2023-11-18T06:20:34;4.18;;;2.30;;
72335;SDS011;73817;48.446;8.834;2023-11-18T06:26:35;3.00;;;1.80;;
72335;SDS011;73817;48.446;8.834;2023-11-18T06:29:36;3.28;;;2.15;;
72335;SDS011;73817;48.446;8.834;2023-11-18T06:32:36;7.78;;;2.05;;
72335;SDS011;73817;48.446;8.834;2023-11-18T06:35:37;3.30;;;2.35;;
72335;SDS011;73817;48.446;8.834;2023-11-18T06:38:37;4.22;;;2.42;;
72335;SDS011;73817;48.446;8.834;2023-11-18T06:41:38;3.85;;;2.42;;
72335;SDS011;73817;48.446;8.834;2023-11-18T06:44:48;4.90;;;2.45;;
72335;SDS011;73817;48.446;8.834;2023-11-18T06:47:49;6.40;;;2.33;;
72335;SDS011;73817;48.446;8.834;2023-11-18T06:50:49;3.85;;;2.20;;
72335;SDS011;73817;48.446;8.834;2023-11-18T06:53:53;3.70;;;2.40;;
72335;SDS011;73817;48.446;8.834;2023-11-18T06:56:57;5.07;;;2.80;;
72335;SDS011;73817;48.446;8.834;2023-11-18T06:59:57;9.15;;;3.15;;
72335;SDS011;73817;48.446;8.834;2023-11-18T07:02:57;5.93;;;2.53;;
72335;SDS011;73817;48.446;8.834;2023-11-18T07:05:58;5.00;;;2.50;;
72335;SDS011;73817;48.446;8.834;2023-11-18T07:08:59;4.10;;;2.40;;
72335;SDS011;73817;48.446;8.834;2023-11-18T07:12:00;20.15;;;2.92;;
72335;SDS011;73817;48.446;8.834;2023-11-18T07:15:01;14.45;;;2.95;;
72335;SDS011;73817;48.446;8.834;2023-11-18T07:18:02;7.38;;;2.85;;
72335;SDS011;73817;48.446;8.834;2023-11-18T07:21:06;5.95;;;2.95;;
72335;SDS011;73817;48.446;8.834;2023-11-18T07:24:07;4.32;;;2.95;;
72335;SDS011;73817;48.446;8.834;2023-11-18T07:27:07;5.72;;;2.45;;
72335;SDS011;73817;48.446;8.834;2023-11-18T07:30:11;5.45;;;3.28;;
72335;SDS011;73817;48.446;8.834;2023-11-18T07:33:11;4.97;;;2.88;;
72335;SDS011;73817;48.446;8.834;2023-11-18T07:36:12;5.53;;;3.20;;
72335;SDS011;73817;48.446;8.834;2023-11-18T07:39:12;5.00;;;2.78;;
72335;SDS011;73817;48.446;8.834;2023-11-18T07:42:15;5.93;;;3.42;;
72335;SDS011;73817;48.446;8.834;2023-11-18T07:45:18;8.10;;;3.63;;
72335;SDS011;73817;48.446;8.834;2023-11-18T07:48:18;4.63;;;3.13;;
72335;SDS011;73817;48.446;8.834;2023-11-18T07:51:20;5.57;;;3.63;;
72335;SDS011;73817;48.446;8.834;2023-11-18T07:54:24;7.22;;;3.28;;
72335;SDS011;73817;48.446;8.834;2023-11-18T07:57:24;6.30;;;3.42;;
72335;SDS011;73817;48.446;8.834;2023-11-18T08:00:26;6.28;;;3.08;;
72335;SDS011;73817;48.446;8.834;2023-11-18T08:03:30;5.22;;;3.20;;
72335;SDS011;73817;48.446;8.834;2023-11-18T08:06:31;5.97;;;3.33;;
72335;SDS011;73817;48.446;8.834;2023-11-18T08:09:32;5.78;;;2.97;;
72335;SDS011;73817;48.446;8.834;2023-11-18T08:12:33;5.38;;;3.40;;
72335;SDS011;73817;48.446;8.834;2023-11-18T08:15:33;7.22;;;4.25;;
72335;SDS011;73817;48.446;8.834;2023-11-18T08:18:34;5.10;;;3.20;;
72335;SDS011;73817;48.446;8.834;2023-11-18T08:21:35;5.63;;;4.00;;
72335;SDS011;73817;48.446;8.834;2023-11-18T08:24:37;5.72;;;3.50;;
72335;SDS011;73817;48.446;8.834;2023-11-18T08:27:39;5.22;;;3.03;;
72335;SDS011;73817;48.446;8.834;2023-11-18T08:30:40;4.50;;;3.08;;
72335;SDS011;73817;48.446;8.834;2023-11-18T08:33:40;6.10;;;3.38;;
72335;SDS011;73817;48.446;8.834;2023-11-18T08:36:41;6.10;;;3.53;;
72335;SDS011;73817;48.446;8.834;2023-11-18T08:39:43;6.50;;;3.38;;
72335;SDS011;73817;48.446;8.834;2023-11-18T08:42:44;7.97;;;4.68;;
72335;SDS011;73817;48.446;8.834;2023-11-18T08:45:49;5.88;;;4.05;;
72335;SDS011;73817;48.446;8.834;2023-11-18T08:48:50;6.50;;;4.10;;
72335;SDS011;73817;48.446;8.834;2023-11-18T08:51:51;5.55;;;4.05;;
72335;SDS011;73817;48.446;8.834;2023-11-18T08:54:56;6.32;;;3.55;;
72335;SDS011;73817;48.446;8.834;2023-11-18T08:58:15;6.00;;;4.10;;
72335;SDS011;73817;48.446;8.834;2023-11-18T09:01:27;6.15;;;3.85;;
72335;SDS011;73817;48.446;8.834;2023-11-18T09:04:28;13.60;;;7.15;;
72335;SDS011;73817;48.446;8.834;2023-11-18T09:07:28;8.10;;;4.68;;
72335;SDS011;73817;48.446;8.834;2023-11-18T09:10:29;6.57;;;4.28;;
72335;SDS011;73817;48.446;8.834;2023-11-18T09:13:29;6.55;;;3.63;;
72335;SDS011;73817;48.446;8.834;2023-11-18T09:16:30;4.70;;;3.22;;
72335;SDS011;73817;48.446;8.834;2023-11-18T09:19:30;4.38;;;2.97;;
72335;SDS011;73817;48.446;8.834;2023-11-18T09:22:31;4.28;;;2.92;;
72335;SDS011;73817;48.446;8.834;2023-11-18T09:25:32;4.35;;;2.72;;
72335;SDS011;73817;48.446;8.834;2023-11-18T09:28:33;6.53;;;3.13;;
72335;SDS011;73817;48.446;8.834;2023-11-18T09:31:35;6.97;;;4.07;;
72335;SDS011;73817;48.446;8.834;2023-11-18T09:34:37;7.65;;;4.82;;
72335;SDS011;73817;48.446;8.834;2023-11-18T09:37:39;6.43;;;3.72;;
72335;SDS011;73817;48.446;8.834;2023-11-18T09:40:42;4.05;;;3.50;;
72335;SDS011;73817;48.446;8.834;2023-11-18T09:43:46;4.70;;;3.03;;
72335;SDS011;73817;48.446;8.834;2023-11-18T09:46:47;4.32;;;2.97;;
72335;SDS011;73817;48.446;8.834;2023-11-18T09:49:57;4.75;;;3.40;;
72335;SDS011;73817;48.446;8.834;2023-11-18T09:53:05;4.95;;;3.35;;
72335;SDS011;73817;48.446;8.834;2023-11-18T09:56:12;4.05;;;3.17;;
72335;SDS011;73817;48.446;8.834;2023-11-18T09:59:31;4.20;;;3.10;;
72335;SDS011;73817;48.446;8.834;2023-11-18T10:02:35;4.53;;;3.45;;
72335;SDS011;73817;48.446;8.834;2023-11-18T10:05:40;3.47;;;2.78;;
72335;SDS011;73817;48.446;8.834;2023-11-18T10:08:42;3.22;;;2.53;;
72335;SDS011;73817;48.446;8.834;2023-11-18T10:11:48;2.55;;;1.90;;
72335;SDS011;73817;48.446;8.834;2023-11-18T10:14:49;3.63;;;2.08;;
72335;SDS011;73817;48.446;8.834;2023-11-18T10:17:52;12.45;;;6.78;;
72335;SDS011;73817;48.446;8.834;2023-11-18T10:20:59;4.22;;;2.70;;
72335;SDS011;73817;48.446;8.834;2023-11-18T10:24:01;5.47;;;3.60;;
72335;SDS011;73817;48.446;8.834;2023-11-18T10:27:01;4.15;;;2.55;;
72335;SDS011;73817;48.446;8.834;2023-11-18T10:30:02;7.45;;;3.63;;
72335;SDS011;73817;48.446;8.834;2023-11-18T10:33:04;2.88;;;2.40;;
72335;SDS011;73817;48.446;8.834;2023-11-18T10:36:07;2.72;;;1.75;;
72335;SDS011;73817;48.446;8.834;2023-11-18T10:39:22;2.22;;;1.30;;
72335;SDS011;73817;48.446;8.834;2023-11-18T10:42:26;2.45;;;1.20;;
72335;SDS011;73817;48.446;8.834;2023-11-18T10:48:32;2.08;;;1.33;;
72335;SDS011;73817;48.446;8.834;2023-11-18T10:51:33;1.48;;;1.38;;
72335;SDS011;73817;48.446;8.834;2023-11-18T10:54:35;1.88;;;1.20;;
72335;SDS011;73817;48.446;8.834;2023-11-18T10:57:35;1.60;;;0.98;;
72335;SDS011;73817;48.446;8.834;2023-11-18T11:00:45;2.90;;;0.90;;
72335;SDS011;73817;48.446;8.834;2023-11-18T11:03:54;1.95;;;0.88;;
72335;SDS011;73817;48.446;8.834;2023-11-18T11:06:58;2.88;;;1.15;;
72335;SDS011;73817;48.446;8.834;2023-11-18T11:10:01;1.60;;;1.00;;
72335;SDS011;73817;48.446;8.834;2023-11-18T11:13:04;2.50;;;0.80;;
72335;SDS011;73817;48.446;8.834;2023-11-18T11:16:08;1.38;;;1.00;;
72335;SDS011;73817;48.446;8.834;2023-11-18T11:19:20;2.78;;;1.10;;
72335;SDS011;73817;48.446;8.834;2023-11-18T11:22:56;5.65;;;0.95;;
72335;SDS011;73817;48.446;8.834;2023-11-18T11:26:33;1.83;;;0.70;;
72335;SDS011;73817;48.446;8.834;2023-11-18T11:29:42;2.08;;;0.90;;
72335;SDS011;73817;48.446;8.834;2023-11-18T11:32:51;1.67;;;0.90;;
72335;SDS011;73817;48.446;8.834;2023-11-18T11:35:54;2.38;;;0.63;;
72335;SDS011;73817;48.446;8.834;2023-11-18T11:38:59;1.13;;;1.02;;
72335;SDS011;73817;48.446;8.834;2023-11-18T11:42:01;1.98;;;0.98;;
72335;SDS011;73817;48.446;8.834;2023-11-18T11:45:03;2.35;;;0.80;;
72335;SDS011;73817;48.446;8.834;2023-11-18T11:48:08;1.35;;;0.82;;
72335;SDS011;73817;48.446;8.834;2023-11-18T11:51:26;1.60;;;1.10;;
72335;SDS011;73817;48.446;8.834;2023-11-18T11:54:34;3.38;;;1.55;;
72335;SDS011;73817;48.446;8.834;2023-11-18T11:57:40;4.05;;;0.95;;
72335;SDS011;73817;48.446;8.834;2023-11-18T12:00:42;2.03;;;1.02;;
72335;SDS011;73817;48.446;8.834;2023-11-18T12:03:43;3.15;;;1.90;;
72335;SDS011;73817;48.446;8.834;2023-11-18T12:06:43;3.70;;;2.33;;
72335;SDS011;73817;48.446;8.834;2023-11-18T12:09:47;2.15;;;1.20;;
72335;SDS011;73817;48.446;8.834;2023-11-18T12:12:47;2.30;;;1.63;;
72335;SDS011;73817;48.446;8.834;2023-11-18T12:22:32;2.13;;;1.25;;
72335;SDS011;73817;48.446;8.834;2023-11-18T12:26:37;2.08;;;1.20;;
72335;SDS011;73817;48.446;8.834;2023-11-18T12:29:41;2.03;;;1.25;;
72335;SDS011;73817;48.446;8.834;2023-11-18T12:33:18;2.03;;;1.13;;
72335;SDS011;73817;48.446;8.834;2023-11-18T12:43:15;2.03;;;1.20;;
72335;SDS011;73817;48.446;8.834;2023-11-18T12:49:37;2.95;;;1.58;;
72335;SDS011;73817;48.446;8.834;2023-11-18T12:52:41;4.38;;;2.20;;
72335;SDS011;73817;48.446;8.834;2023-11-18T12:55:44;3.40;;;1.50;;
72335;SDS011;73817;48.446;8.834;2023-11-18T12:58:48;2.33;;;1.60;;
72335;SDS011;73817;48.446;8.834;2023-11-18T13:01:48;2.42;;;1.50;;
72335;SDS011;73817;48.446;8.834;2023-11-18T13:04:56;3.13;;;1.73;;
72335;SDS011;73817;48.446;8.834;2023-11-18T13:07:57;5.20;;;2.75;;
72335;SDS011;73817;48.446;8.834;2023-11-18T13:14:05;3.10;;;1.90;;
72335;SDS011;73817;48.446;8.834;2023-11-18T13:17:08;2.45;;;1.88;;
72335;SDS011;73817;48.446;8.834;2023-11-18T13:20:13;3.42;;;1.90;;
72335;SDS011;73817;48.446;8.834;2023-11-18T13:23:19;3.47;;;2.15;;
72335;SDS011;73817;48.446;8.834;2023-11-18T13:26:20;3.20;;;1.67;;
72335;SDS011;73817;48.446;8.834;2023-11-18T13:29:21;3.10;;;1.67;;
72335;SDS011;73817;48.446;8.834;2023-11-18T13:32:25;2.55;;;2.08;;
72335;SDS011;73817;48.446;8.834;2023-11-18T13:35:26;3.08;;;1.92;;
72335;SDS011;73817;48.446;8.834;2023-11-18T13:38:27;3.65;;;1.63;;
72335;SDS011;73817;48.446;8.834;2023-11-18T13:41:29;3.85;;;1.75;;
72335;SDS011;73817;48.446;8.834;2023-11-18T13:44:35;3.13;;;1.75;;
72335;SDS011;73817;48.446;8.834;2023-11-18T13:47:38;16.38;;;7.20;;
72335;SDS011;73817;48.446;8.834;2023-11-18T13:50:40;6.93;;;3.65;;
72335;SDS011;73817;48.446;8.834;2023-11-18T13:53:41;4.47;;;2.40;;
72335;SDS011;73817;48.446;8.834;2023-11-18T13:56:43;3.45;;;2.55;;
72335;SDS011;73817;48.446;8.834;2023-11-18T13:59:44;2.20;;;1.83;;
72335;SDS011;73817;48.446;8.834;2023-11-18T14:02:45;7.25;;;3.28;;
72335;SDS011;73817;48.446;8.834;2023-11-18T14:05:50;3.35;;;2.40;;
72335;SDS011;73817;48.446;8.834;2023-11-18T14:08:51;2.08;;;1.60;;
72335;SDS011;73817;48.446;8.834;2023-11-18T14:11:52;2.15;;;1.60;;
72335;SDS011;73817;48.446;8.834;2023-11-18T14:14:56;2.28;;;1.52;;
72335;SDS011;73817;48.446;8.834;2023-11-18T14:17:56;2.85;;;1.52;;
72335;SDS011;73817;48.446;8.834;2023-11-18T14:20:57;2.75;;;1.42;;
72335;SDS011;73817;48.446;8.834;2023-11-18T14:23:58;4.68;;;1.23;;
72335;SDS011;73817;48.446;8.834;2023-11-18T14:27:03;2.45;;;1.52;;
72335;SDS011;73817;48.446;8.834;2023-11-18T14:30:04;1.75;;;1.33;;
72335;SDS011;73817;48.446;8.834;2023-11-18T14:33:08;2.17;;;1.38;;
72335;SDS011;73817;48.446;8.834;2023-11-18T14:36:08;2.17;;;1.20;;
72335;SDS011;73817;48.446;8.834;2023-11-18T14:39:09;6.15;;;1.25;;
72335;SDS011;73817;48.446;8.834;2023-11-18T14:42:09;2.53;;;1.13;;
72335;SDS011;73817;48.446;8.834;2023-11-18T14:45:10;1.90;;;1.15;;
72335;SDS011;73817;48.446;8.834;2023-11-18T14:48:13;1.50;;;1.08;;
72335;SDS011;73817;48.446;8.834;2023-11-18T14:51:13;2.47;;;1.52;;
72335;SDS011;73817;48.446;8.834;2023-11-18T14:54:13;2.67;;;1.52;;
72335;SDS011;73817;48.446;8.834;2023-11-18T14:57:14;1.92;;;1.30;;
72335;SDS011;73817;48.446;8.834;2023-11-18T15:00:14;4.57;;;3.63;;
72335;SDS011;73817;48.446;8.834;2023-11-18T15:03:27;2.97;;;2.00;;
72335;SDS011;73817;48.446;8.834;2023-11-18T15:06:29;1.67;;;1.27;;
72335;SDS011;73817;48.446;8.834;2023-11-18T15:09:30;3.28;;;2.83;;
72335;SDS011;73817;48.446;8.834;2023-11-18T15:12:32;2.58;;;1.60;;
72335;SDS011;73817;48.446;8.834;2023-11-18T15:15:32;7.07;;;6.35;;
72335;SDS011;73817;48.446;8.834;2023-11-18T15:18:33;4.28;;;3.55;;
72335;SDS011;73817;48.446;8.834;2023-11-18T15:24:35;2.63;;;1.80;;
72335;SDS011;73817;48.446;8.834;2023-11-18T15:27:36;3.45;;;1.60;;
72335;SDS011;73817;48.446;8.834;2023-11-18T15:30:36;2.25;;;1.25;;
72335;SDS011;73817;48.446;8.834;2023-11-18T15:33:37;2.28;;;1.27;;
72335;SDS011;73817;48.446;8.834;2023-11-18T15:39:42;1.70;;;1.30;;
72335;SDS011;73817;48.446;8.834;2023-11-18T15:42:43;2.25;;;0.82;;
72335;SDS011;73817;48.446;8.834;2023-11-18T15:45:48;1.65;;;1.10;;
72335;SDS011;73817;48.446;8.834;2023-11-18T15:48:48;2.10;;;1.10;;
72335;SDS011;73817;48.446;8.834;2023-11-18T15:51:49;1.92;;;1.10;;
72335;SDS011;73817;48.446;8.834;2023-11-18T15:54:49;1.92;;;1.05;;
72335;SDS011;73817;48.446;8.834;2023-11-18T15:57:50;1.73;;;0.98;;
72335;SDS011;73817;48.446;8.834;2023-11-18T16:00:52;2.03;;;1.15;;
72335;SDS011;73817;48.446;8.834;2023-11-18T16:03:52;3.47;;;1.13;;
72335;SDS011;73817;48.446;8.834;2023-11-18T16:06:53;1.35;;;0.80;;
72335;SDS011;73817;48.446;8.834;2023-11-18T16:09:53;1.80;;;1.15;;
72335;SDS011;73817;48.446;8.834;2023-11-18T16:12:55;5.18;;;1.20;;
72335;SDS011;73817;48.446;8.834;2023-11-18T16:15:59;3.13;;;0.90;;
72335;SDS011;73817;48.446;8.834;2023-11-18T16:18:59;0.82;;;0.82;;
72335;SDS011;73817;48.446;8.834;2023-11-18T16:22:00;2.20;;;1.10;;
72335;SDS011;73817;48.446;8.834;2023-11-18T16:25:03;1.48;;;1.02;;
72335;SDS011;73817;48.446;8.834;2023-11-18T16:28:04;2.58;;;1.60;;
72335;SDS011;73817;48.446;8.834;2023-11-18T16:31:07;3.67;;;1.00;;
72335;SDS011;73817;48.446;8.834;2023-11-18T16:37:09;2.33;;;1.23;;
72335;SDS011;73817;48.446;8.834;2023-11-18T16:40:11;1.88;;;1.40;;
72335;SDS011;73817;48.446;8.834;2023-11-18T16:43:16;1.50;;;1.08;;
72335;SDS011;73817;48.446;8.834;2023-11-18T16:46:17;1.58;;;0.93;;
72335;SDS011;73817;48.446;8.834;2023-11-18T16:49:17;2.15;;;0.90;;
72335;SDS011;73817;48.446;8.834;2023-11-18T16:52:18;1.55;;;1.00;;
72335;SDS011;73817;48.446;8.834;2023-11-18T16:58:21;1.88;;;0.93;;
72335;SDS011;73817;48.446;8.834;2023-11-18T17:01:22;2.40;;;1.05;;
72335;SDS011;73817;48.446;8.834;2023-11-18T17:04:24;2.15;;;1.35;;
72335;SDS011;73817;48.446;8.834;2023-11-18T17:07:25;2.47;;;1.15;;
72335;SDS011;73817;48.446;8.834;2023-11-18T17:10:27;2.55;;;1.15;;
72335;SDS011;73817;48.446;8.834;2023-11-18T17:13:27;1.58;;;0.90;;
72335;SDS011;73817;48.446;8.834;2023-11-18T17:16:30;3.63;;;1.58;;
72335;SDS011;73817;48.446;8.834;2023-11-18T17:19:31;4.20;;;2.58;;
72335;SDS011;73817;48.446;8.834;2023-11-18T17:22:32;2.72;;;1.60;;
72335;SDS011;73817;48.446;8.834;2023-11-18T17:25:33;3.03;;;1.33;;
72335;SDS011;73817;48.446;8.834;2023-11-18T17:28:33;1.90;;;1.33;;
72335;SDS011;73817;48.446;8.834;2023-11-18T17:31:34;3.30;;;1.52;;
72335;SDS011;73817;48.446;8.834;2023-11-18T17:34:37;2.17;;;1.10;;
72335;SDS011;73817;48.446;8.834;2023-11-18T17:37:37;2.60;;;1.15;;
72335;SDS011;73817;48.446;8.834;2023-11-18T17:40:38;2.30;;;1.65;;
72335;SDS011;73817;48.446;8.834;2023-11-18T17:43:39;2.17;;;1.10;;
72335;SDS011;73817;48.446;8.834;2023-11-18T17:49:43;1.95;;;1.25;;
72335;SDS011;73817;48.446;8.834;2023-11-18T17:52:47;4.38;;;1.95;;
72335;SDS011;73817;48.446;8.834;2023-11-18T17:55:50;1.83;;;1.20;;
72335;SDS011;73817;48.446;8.834;2023-11-18T17:58:50;1.63;;;1.02;;
72335;SDS011;73817;48.446;8.834;2023-11-18T18:01:51;3.42;;;1.92;;
72335;SDS011;73817;48.446;8.834;2023-11-18T18:04:54;1.58;;;1.35;;
72335;SDS011;73817;48.446;8.834;2023-11-18T18:07:54;1.63;;;0.70;;
72335;SDS011;73817;48.446;8.834;2023-11-18T18:10:56;2.20;;;1.13;;
72335;SDS011;73817;48.446;8.834;2023-11-18T18:13:57;1.30;;;1.13;;
72335;SDS011;73817;48.446;8.834;2023-11-18T18:16:57;4.40;;;1.30;;
72335;SDS011;73817;48.446;8.834;2023-11-18T18:20:01;3.05;;;1.35;;
72335;SDS011;73817;48.446;8.834;2023-11-18T18:23:02;2.70;;;1.58;;
72335;SDS011;73817;48.446;8.834;2023-11-18T18:26:03;1.50;;;1.02;;
72335;SDS011;73817;48.446;8.834;2023-11-18T18:29:04;2.58;;;1.30;;
72335;SDS011;73817;48.446;8.834;2023-11-18T18:32:05;1.30;;;1.20;;
72335;SDS011;73817;48.446;8.834;2023-11-18T18:35:08;3.50;;;1.33;;
72335;SDS011;73817;48.446;8.834;2023-11-18T18:38:12;2.78;;;1.90;;
72335;SDS011;73817;48.446;8.834;2023-11-18T18:41:13;2.28;;;1.23;;
72335;SDS011;73817;48.446;8.834;2023-11-18T18:44:14;1.45;;;0.82;;
72335;SDS011;73817;48.446;8.834;2023-11-18T18:47:14;1.73;;;1.05;;
72335;SDS011;73817;48.446;8.834;2023-11-18T18:50:15;2.78;;;1.20;;
72335;SDS011;73817;48.446;8.834;2023-11-18T18:53:18;1.73;;;1.30;;
72335;SDS011;73817;48.446;8.834;2023-11-18T18:56:18;2.05;;;1.63;;
72335;SDS011;73817;48.446;8.834;2023-11-18T18:59:21;2.03;;;1.08;;
72335;SDS011;73817;48.446;8.834;2023-11-18T19:02:22;1.42;;;1.10;;
72335;SDS011;73817;48.446;8.834;2023-11-18T19:05:23;1.23;;;0.95;;
72335;SDS011;73817;48.446;8.834;2023-11-18T19:08:24;1.58;;;1.48;;